Time;durP1;ratioP1;P1;durP2;ratioP2;P2;SDS_P1;SDS_P2;PMS_P1;PMS_P2;Temp;Humidity;BMP_temperature;BMP_pressure;BME280_temperature;BME280_humidity;BME280_pressure;Samples;Min_cycle;Max_cycle;Signal;HPM_P1;HPM_P2
2022/01/20 00:03:35;;;;;;;8.88;3.42;;;;;;;;;;5007033;28;20053;-71
2022/01/20 00:27:49;;;;;;;14.35;6.57;;;;;;;;;;5010448;28;20100;-71
2022/01/20 00:33:50;;;;;;;13.30;5.10;;;;;;;;;;4999460;28;20112;-71
2022/01/20 00:38:23;;;;;;;7.68;3.03;;;;;;;;;;5011884;28;20065;-71
2022/01/20 00:40:50;;;;;;;9.82;3.95;;;;;;;;;;5007177;28;20046;-71
2022/01/20 00:43:16;;;;;;;8.43;3.00;;;;;;;;;;5011997;28;20050;-71
2022/01/20 00:45:43;;;;;;;10.43;3.60;;;;;;;;;;5006680;28;20112;-71
2022/01/20 00:48:09;;;;;;;14.70;8.10;;;;;;;;;;5011243;28;20050;-71
2022/01/20 00:50:36;;;;;;;17.85;8.48;;;;;;;;;;5007676;28;20553;-71
2022/01/20 00:53:02;;;;;;;13.93;7.53;;;;;;;;;;5005957;28;20096;-71
2022/01/20 00:55:29;;;;;;;15.38;7.53;;;;;;;;;;5008760;28;20211;-71
2022/01/20 00:57:55;;;;;;;15.10;7.57;;;;;;;;;;5003731;28;20108;-70
2022/01/20 01:00:22;;;;;;;16.48;8.27;;;;;;;;;;5009255;28;20098;-71
2022/01/20 01:02:49;;;;;;;11.80;4.45;;;;;;;;;;5001952;28;20046;-71
2022/01/20 01:05:15;;;;;;;15.07;3.72;;;;;;;;;;5010414;28;20060;-71
2022/01/20 01:07:50;;;;;;;7.72;2.30;;;;;;;;;;5000092;28;20049;-71
2022/01/20 01:10:19;;;;;;;6.90;2.60;;;;;;;;;;5011674;28;20410;-71
2022/01/20 01:13:00;;;;;;;10.13;3.42;;;;;;;;;;5012017;28;20410;-71
2022/01/20 01:15:31;;;;;;;7.40;4.18;;;;;;;;;;5009074;28;20073;-71
2022/01/20 01:23:26;;;;;;;7.53;2.47;;;;;;;;;;5012283;28;20493;-71
2022/01/20 01:25:55;;;;;;;10.00;3.30;;;;;;;;;;5008567;28;20038;-71
2022/01/20 01:28:25;;;;;;;9.20;3.33;;;;;;;;;;5011947;28;20112;-70
2022/01/20 01:33:35;;;;;;;9.77;4.25;;;;;;;;;;5011664;28;20477;-70
2022/01/20 01:36:04;;;;;;;9.50;3.90;;;;;;;;;;5011965;28;20042;-71
2022/01/20 01:38:36;;;;;;;10.30;3.53;;;;;;;;;;5011793;28;20116;-70
2022/01/20 01:41:04;;;;;;;6.93;2.65;;;;;;;;;;5011967;28;20050;-71
2022/01/20 01:43:31;;;;;;;13.48;4.70;;;;;;;;;;5011942;28;20410;-71
2022/01/20 01:46:00;;;;;;;;;;;;;;;;;;5012438;28;20141;-71
2022/01/20 01:48:28;;;;;;;8.05;3.95;;;;;;;;;;5011703;28;20008;-71
2022/01/20 01:50:55;;;;;;;8.75;3.83;;;;;;;;;;5011491;28;20104;-71
2022/01/20 01:53:22;;;;;;;11.18;4.63;;;;;;;;;;5011592;28;20042;-71
2022/01/20 01:55:48;;;;;;;11.30;4.57;;;;;;;;;;5011428;28;20506;-71
2022/01/20 01:58:15;;;;;;;11.52;4.07;;;;;;;;;;5011412;28;20101;-70
2022/01/20 02:00:42;;;;;;;10.13;3.80;;;;;;;;;;5011928;28;20050;-70
2022/01/20 02:03:09;;;;;;;;;;;;;;;;;;5012271;28;20050;-70
2022/01/20 02:05:47;;;;;;;7.90;3.65;;;;;;;;;;5011377;28;20015;-70
2022/01/20 02:19:12;;;;;;;9.00;4.20;;;;;;;;;;5015303;28;20049;-70
2022/01/20 02:21:45;;;;;;;6.80;3.95;;;;;;;;;;5015006;28;20521;-70
2022/01/20 02:24:11;;;;;;;5.35;3.75;;;;;;;;;;5014867;28;20124;-71
2022/01/20 02:26:38;;;;;;;11.82;4.30;;;;;;;;;;5008641;28;20275;-71
2022/01/20 02:29:04;;;;;;;13.52;4.07;;;;;;;;;;5014645;28;20057;-70
2022/01/20 02:31:31;;;;;;;10.35;4.38;;;;;;;;;;5012033;28;20053;-71
2022/01/20 02:33:58;;;;;;;10.25;4.30;;;;;;;;;;5014630;28;20062;-70
2022/01/20 02:36:25;;;;;;;9.37;3.93;;;;;;;;;;5010435;28;20801;-70
2022/01/20 02:38:57;;;;;;;9.55;4.53;;;;;;;;;;5007207;28;20096;-71
2022/01/20 02:46:53;;;;;;;8.13;3.55;;;;;;;;;;5013870;28;20054;-70
2022/01/20 02:49:20;;;;;;;7.78;3.58;;;;;;;;;;5014502;28;20050;-70
2022/01/20 02:51:48;;;;;;;8.57;4.22;;;;;;;;;;5009979;28;20057;-70
2022/01/20 02:54:15;;;;;;;8.23;3.38;;;;;;;;;;5014272;28;20046;-70
2022/01/20 02:56:41;;;;;;;9.50;3.67;;;;;;;;;;5010740;28;20054;-71
2022/01/20 02:59:08;;;;;;;6.72;3.75;;;;;;;;;;5013110;28;20054;-70
2022/01/20 03:01:35;;;;;;;10.48;3.95;;;;;;;;;;5010338;28;20479;-70
2022/01/20 03:04:03;;;;;;;8.73;3.50;;;;;;;;;;5012890;28;20052;-70
2022/01/20 03:06:29;;;;;;;7.57;3.35;;;;;;;;;;5012694;28;20043;-70
2022/01/20 03:08:55;;;;;;;5.57;2.97;;;;;;;;;;5013797;28;20461;-70
2022/01/20 03:11:22;;;;;;;9.27;3.60;;;;;;;;;;5011696;28;20054;-70
2022/01/20 03:13:48;;;;;;;5.57;3.38;;;;;;;;;;5010268;28;20050;-70
2022/01/20 03:16:15;;;;;;;6.07;3.53;;;;;;;;;;5012529;28;20172;-70
2022/01/20 03:18:42;;;;;;;8.75;3.72;;;;;;;;;;5008368;28;20494;-70
2022/01/20 03:21:08;;;;;;;7.15;3.78;;;;;;;;;;5012974;28;20057;-70
2022/01/20 03:23:34;;;;;;;10.90;3.08;;;;;;;;;;5013182;28;20050;-71
2022/01/20 03:26:01;;;;;;;6.65;3.22;;;;;;;;;;5013885;28;20050;-71
2022/01/20 03:28:27;;;;;;;7.70;3.58;;;;;;;;;;5012703;28;20473;-71
2022/01/20 03:30:54;;;;;;;8.95;3.70;;;;;;;;;;5013493;28;20049;-71
2022/01/20 03:33:20;;;;;;;8.52;3.30;;;;;;;;;;5011204;28;20057;-71
2022/01/20 03:35:47;;;;;;;4.95;2.40;;;;;;;;;;5013119;28;20100;-71
2022/01/20 03:38:14;;;;;;;8.27;2.50;;;;;;;;;;5003560;28;20109;-70
2022/01/20 03:40:40;;;;;;;7.07;2.45;;;;;;;;;;5013440;28;20050;-70
2022/01/20 03:43:07;;;;;;;7.50;2.10;;;;;;;;;;5012387;28;20053;-70
2022/01/20 03:45:33;;;;;;;7.28;2.13;;;;;;;;;;5013246;28;20080;-70
2022/01/20 03:48:08;;;;;;;7.40;2.58;;;;;;;;;;5012047;28;20059;-70
2022/01/20 03:53:21;;;;;;;6.38;2.17;;;;;;;;;;5010734;28;20104;-70
2022/01/20 03:55:47;;;;;;;7.43;2.10;;;;;;;;;;5013435;28;20041;-70
2022/01/20 03:58:14;;;;;;;5.80;1.98;;;;;;;;;;5012172;28;20053;-70
2022/01/20 04:00:41;;;;;;;9.15;2.10;;;;;;;;;;5011986;28;20410;-70
2022/01/20 04:03:07;;;;;;;10.40;2.17;;;;;;;;;;5011043;28;20061;-70
2022/01/20 04:05:37;;;;;;;7.75;2.03;;;;;;;;;;5012520;28;20058;-71
2022/01/20 04:08:06;;;;;;;6.68;2.60;;;;;;;;;;5003928;28;20069;-71
2022/01/20 04:10:32;;;;;;;8.13;2.03;;;;;;;;;;5012686;28;20104;-71
2022/01/20 04:12:59;;;;;;;5.60;2.05;;;;;;;;;;5011567;28;20573;-70
2022/01/20 04:15:36;;;;;;;5.60;1.75;;;;;;;;;;5012555;28;20136;-70
2022/01/20 04:18:02;;;;;;;5.75;2.00;;;;;;;;;;5011451;28;20486;-71
2022/01/20 04:20:29;;;;;;;6.65;1.98;;;;;;;;;;5013073;28;20116;-70
2022/01/20 04:22:55;;;;;;;7.68;2.17;;;;;;;;;;5011672;28;20054;-70
2022/01/20 04:25:22;;;;;;;5.15;2.50;;;;;;;;;;5012466;28;20057;-70
2022/01/20 04:27:48;;;;;;;7.97;3.10;;;;;;;;;;5007124;28;20053;-70
2022/01/20 04:30:15;;;;;;;7.60;2.45;;;;;;;;;;5012439;28;20077;-70
2022/01/20 04:32:41;;;;;;;8.23;2.70;;;;;;;;;;5011263;28;20042;-70
2022/01/20 04:35:08;;;;;;;9.45;2.80;;;;;;;;;;5010512;28;20088;-70
2022/01/20 04:37:34;;;;;;;9.43;2.50;;;;;;;;;;5011192;28;20046;-70
2022/01/20 04:40:03;;;;;;;8.73;2.10;;;;;;;;;;5012655;28;20096;-70
2022/01/20 04:42:33;;;;;;;6.93;2.78;;;;;;;;;;5011287;28;20073;-71
2022/01/20 04:45:02;;;;;;;7.35;2.13;;;;;;;;;;5012321;28;20058;-70
2022/01/20 04:47:40;;;;;;;7.93;1.98;;;;;;;;;;5002138;28;20085;-70
2022/01/20 04:58:21;;;;;;;7.25;1.88;;;;;;;;;;5011053;28;20441;-70
2022/01/20 05:00:48;;;;;;;7.50;1.75;;;;;;;;;;5012340;28;20100;-70
2022/01/20 05:03:14;;;;;;;5.50;1.67;;;;;;;;;;5011198;28;20096;-70
2022/01/20 05:05:41;;;;;;;8.27;2.33;;;;;;;;;;5012403;28;20386;-70
2022/01/20 05:08:08;;;;;;;7.78;2.00;;;;;;;;;;4999199;28;20049;-71
2022/01/20 05:10:35;;;;;;;5.60;1.40;;;;;;;;;;5012278;28;20064;-70
2022/01/20 05:13:23;;;;;;;13.37;2.30;;;;;;;;;;5011336;28;20432;-71
2022/01/20 05:15:49;;;;;;;;;;;;;;;;;;5012393;28;20058;-70
2022/01/20 05:18:15;;;;;;;10.15;2.17;;;;;;;;;;5010532;28;19922;-71
2022/01/20 05:20:42;;;;;;;7.38;1.85;;;;;;;;;;5011791;28;20088;-71
2022/01/20 05:23:09;;;;;;;8.07;2.20;;;;;;;;;;5010474;28;20054;-71
2022/01/20 05:25:35;;;;;;;7.43;2.00;;;;;;;;;;5010746;28;20095;-71
2022/01/20 05:28:02;;;;;;;10.05;2.53;;;;;;;;;;5011040;28;20387;-71
2022/01/20 05:30:28;;;;;;;7.80;3.22;;;;;;;;;;5011813;28;20045;-71
2022/01/20 05:32:54;;;;;;;8.32;2.67;;;;;;;;;;5010389;28;20089;-71
2022/01/20 05:35:21;;;;;;;8.05;2.50;;;;;;;;;;5010299;28;20041;-70
2022/01/20 05:37:47;;;;;;;10.95;2.40;;;;;;;;;;5007280;28;20092;-70
2022/01/20 05:40:14;;;;;;;7.35;2.15;;;;;;;;;;5011632;28;20077;-70
2022/01/20 05:42:40;;;;;;;6.68;1.85;;;;;;;;;;5010856;28;20046;-70
2022/01/20 05:45:07;;;;;;;8.80;2.22;;;;;;;;;;5011966;28;20050;-70
2022/01/20 05:47:37;;;;;;;10.90;2.45;;;;;;;;;;5008563;28;20050;-70
2022/01/20 05:50:04;;;;;;;6.25;1.70;;;;;;;;;;5015429;28;20057;-70
2022/01/20 05:52:30;;;;;;;5.55;1.65;;;;;;;;;;5008246;28;20045;-70
2022/01/20 05:54:56;;;;;;;6.95;2.13;;;;;;;;;;5015437;28;20049;-70
2022/01/20 05:57:23;;;;;;;6.82;2.10;;;;;;;;;;5014399;28;20045;-70
2022/01/20 05:59:49;;;;;;;16.00;8.48;;;;;;;;;;5013764;28;20104;-70
2022/01/20 06:02:35;;;;;;;20.63;8.82;;;;;;;;;;5006095;28;20054;-70
2022/01/20 06:05:02;;;;;;;13.73;7.60;;;;;;;;;;5015360;28;20112;-70
2022/01/20 06:07:29;;;;;;;13.53;4.70;;;;;;;;;;5013979;28;20084;-70
2022/01/20 06:09:55;;;;;;;13.63;4.70;;;;;;;;;;5014544;28;20644;-70
2022/01/20 06:12:21;;;;;;;14.93;4.07;;;;;;;;;;5014380;28;20054;-70
2022/01/20 06:14:48;;;;;;;11.43;3.20;;;;;;;;;;5014842;28;20053;-70
2022/01/20 06:17:14;;;;;;;13.75;4.53;;;;;;;;;;5014365;28;20050;-70
2022/01/20 06:19:42;;;;;;;15.10;5.40;;;;;;;;;;5015083;28;20046;-70
2022/01/20 06:22:13;;;;;;;18.58;6.50;;;;;;;;;;5014389;28;20050;-70
2022/01/20 06:24:40;;;;;;;16.42;4.90;;;;;;;;;;5014348;28;20056;-70
2022/01/20 06:27:07;;;;;;;9.57;3.30;;;;;;;;;;5013463;28;20053;-70
2022/01/20 06:29:33;;;;;;;14.15;3.83;;;;;;;;;;5014423;28;20104;-70
2022/01/20 06:31:59;;;;;;;13.55;3.90;;;;;;;;;;5013808;28;20536;-70
2022/01/20 06:34:26;;;;;;;10.75;3.60;;;;;;;;;;5014950;28;20058;-70
2022/01/20 06:36:52;;;;;;;9.40;3.45;;;;;;;;;;5013950;28;20054;-70
2022/01/20 06:39:19;;;;;;;11.27;3.10;;;;;;;;;;5014534;28;20493;-70
2022/01/20 06:41:47;;;;;;;;;;;;;;;;;;5009501;28;20097;-70
2022/01/20 06:44:13;;;;;;;11.32;3.10;;;;;;;;;;5013512;28;19921;-70
2022/01/20 06:46:40;;;;;;;7.30;3.05;;;;;;;;;;5010235;28;20545;-70
2022/01/20 06:49:06;;;;;;;9.57;3.33;;;;;;;;;;5012226;28;20088;-70
2022/01/20 06:51:33;;;;;;;5.97;2.70;;;;;;;;;;5010652;28;20051;-70
2022/01/20 06:53:59;;;;;;;10.45;2.88;;;;;;;;;;5010973;28;20119;-71
2022/01/20 06:56:26;;;;;;;8.82;2.75;;;;;;;;;;5010767;28;20045;-71
2022/01/20 06:59:06;;;;;;;9.38;2.63;;;;;;;;;;5010399;28;20058;-71
2022/01/20 07:01:32;;;;;;;9.90;3.45;;;;;;;;;;5010555;28;20104;-71
2022/01/20 07:03:59;;;;;;;10.98;3.20;;;;;;;;;;5009361;28;20128;-70
2022/01/20 07:06:26;;;;;;;10.30;3.67;;;;;;;;;;5011826;28;20430;-71
2022/01/20 07:08:56;;;;;;;10.07;2.95;;;;;;;;;;5007860;28;20069;-71
2022/01/20 07:11:23;;;;;;;7.95;2.65;;;;;;;;;;5013364;28;20057;-72
2022/01/20 07:13:49;;;;;;;12.25;3.63;;;;;;;;;;5013796;28;20084;-71
2022/01/20 07:16:15;;;;;;;10.63;3.45;;;;;;;;;;5012702;28;20046;-71
2022/01/20 07:18:42;;;;;;;11.80;3.28;;;;;;;;;;5014070;28;20042;-71
2022/01/20 07:21:08;;;;;;;10.05;3.45;;;;;;;;;;5012956;28;20096;-71
2022/01/20 07:23:35;;;;;;;9.57;3.30;;;;;;;;;;5013591;28;20093;-71
2022/01/20 07:26:01;;;;;;;10.43;2.78;;;;;;;;;;5013678;28;20096;-71
2022/01/20 07:28:28;;;;;;;10.32;3.13;;;;;;;;;;5012678;28;20050;-71
2022/01/20 07:30:54;;;;;;;9.73;2.70;;;;;;;;;;5013306;28;20092;-71
2022/01/20 07:33:21;;;;;;;12.27;3.17;;;;;;;;;;5009225;28;20441;-71
2022/01/20 07:35:47;;;;;;;10.23;2.45;;;;;;;;;;5013385;28;20053;-72
2022/01/20 07:38:14;;;;;;;10.40;2.95;;;;;;;;;;5003981;28;20494;-71
2022/01/20 07:40:40;;;;;;;11.65;3.08;;;;;;;;;;5013392;28;20072;-72
2022/01/20 07:43:07;;;;;;;10.45;3.50;;;;;;;;;;5002361;28;20050;-72
2022/01/20 07:45:33;;;;;;;7.70;3.20;;;;;;;;;;5012608;28;20054;-71
2022/01/20 07:48:00;;;;;;;7.80;3.15;;;;;;;;;;5005024;28;20061;-71
2022/01/20 07:50:26;;;;;;;9.63;2.90;;;;;;;;;;5012032;28;20096;-71
2022/01/20 07:52:53;;;;;;;9.95;3.15;;;;;;;;;;5005390;28;20046;-71
2022/01/20 07:55:20;;;;;;;8.45;3.25;;;;;;;;;;5013026;28;20062;-69
2022/01/20 07:57:46;;;;;;;6.47;2.95;;;;;;;;;;5009447;28;20053;-70
2022/01/20 08:00:13;;;;;;;8.85;3.20;;;;;;;;;;5012077;28;20072;-69
2022/01/20 08:02:39;;;;;;;11.63;4.25;;;;;;;;;;5011871;28;20623;-69
2022/01/20 08:05:06;;;;;;;10.23;3.17;;;;;;;;;;5012916;28;20054;-70
2022/01/20 08:07:33;;;;;;;9.77;3.28;;;;;;;;;;5000853;28;20105;-72
2022/01/20 08:09:59;;;;;;;10.63;3.50;;;;;;;;;;5011171;28;20555;-70
2022/01/20 08:12:27;;;;;;;13.10;4.17;;;;;;;;;;5011830;28;20050;-71
2022/01/20 08:14:54;;;;;;;11.60;3.30;;;;;;;;;;5012772;28;20299;-72
2022/01/20 08:17:21;;;;;;;8.93;3.42;;;;;;;;;;5010815;28;20100;-72
2022/01/20 08:19:48;;;;;;;11.20;4.30;;;;;;;;;;5012144;28;20088;-72
2022/01/20 08:22:14;;;;;;;14.32;4.55;;;;;;;;;;5003764;28;20092;-72
2022/01/20 08:25:04;;;;;;;10.25;4.60;;;;;;;;;;5011759;28;20050;-74
2022/01/20 08:27:31;;;;;;;11.13;3.80;;;;;;;;;;5011372;28;20129;-74
2022/01/20 08:29:57;;;;;;;10.40;4.57;;;;;;;;;;5012534;28;20057;-74
2022/01/20 08:32:24;;;;;;;16.42;4.18;;;;;;;;;;5003418;28;20193;-74
2022/01/20 08:34:50;;;;;;;14.35;4.35;;;;;;;;;;5012232;28;20502;-74
2022/01/20 08:37:17;;;;;;;14.68;4.50;;;;;;;;;;5004535;28;20046;-73
2022/01/20 08:39:44;;;;;;;11.80;4.55;;;;;;;;;;5010913;28;20042;-73
2022/01/20 08:42:11;;;;;;;10.68;4.53;;;;;;;;;;5011622;28;20136;-74
2022/01/20 08:44:38;;;;;;;7.38;3.60;;;;;;;;;;5012458;28;20445;-73
2022/01/20 08:47:09;;;;;;;9.60;3.72;;;;;;;;;;5011133;28;20104;-73
2022/01/20 08:49:36;;;;;;;7.40;3.08;;;;;;;;;;5011164;28;20050;-73
2022/01/20 08:52:03;;;;;;;13.10;3.20;;;;;;;;;;5008931;28;20077;-74
2022/01/20 08:54:29;;;;;;;12.15;3.33;;;;;;;;;;5006777;28;20050;-74
2022/01/20 08:56:56;;;;;;;11.32;3.58;;;;;;;;;;5009539;28;20038;-74
2022/01/20 08:59:24;;;;;;;10.70;3.47;;;;;;;;;;5010875;28;20391;-74
2022/01/20 09:01:51;;;;;;;8.48;3.10;;;;;;;;;;5011188;28;20509;-74
2022/01/20 09:04:17;;;;;;;7.88;3.33;;;;;;;;;;5012349;28;20103;-74
2022/01/20 09:06:44;;;;;;;8.68;3.08;;;;;;;;;;5011462;28;20180;-74
2022/01/20 09:09:10;;;;;;;8.48;2.92;;;;;;;;;;5011242;28;20457;-74
2022/01/20 09:11:49;;;;;;;9.02;3.05;;;;;;;;;;5011101;28;20065;-73
2022/01/20 09:17:00;;;;;;;7.75;2.90;;;;;;;;;;5011102;28;20135;-74
2022/01/20 09:19:26;;;;;;;6.28;2.78;;;;;;;;;;5011437;28;20085;-73
2022/01/20 09:21:53;;;;;;;8.27;2.90;;;;;;;;;;5014872;28;20050;-72
2022/01/20 09:24:19;;;;;;;6.40;2.33;;;;;;;;;;5018543;28;20054;-72
2022/01/20 09:26:46;;;;;;;11.35;2.97;;;;;;;;;;5015929;28;20050;-72
2022/01/20 09:29:12;;;;;;;10.05;2.50;;;;;;;;;;5018107;28;20054;-72
2022/01/20 09:31:39;;;;;;;8.60;2.55;;;;;;;;;;5017262;28;20100;-72
2022/01/20 09:34:06;;;;;;;7.63;2.33;;;;;;;;;;5018480;28;20116;-72
2022/01/20 09:36:32;;;;;;;5.10;2.05;;;;;;;;;;5014960;28;20039;-72
2022/01/20 09:38:59;;;;;;;8.20;2.55;;;;;;;;;;5017333;28;20045;-72
2022/01/20 09:41:25;;;;;;;10.43;4.30;;;;;;;;;;5016939;28;20127;-72
2022/01/20 09:43:53;;;;;;;12.20;4.30;;;;;;;;;;5018423;28;20046;-72
2022/01/20 09:46:19;;;;;;;13.35;5.07;;;;;;;;;;5016664;28;20046;-72
2022/01/20 09:48:46;;;;;;;7.50;2.35;;;;;;;;;;5008281;28;20382;-72
2022/01/20 09:51:13;;;;;;;8.50;2.92;;;;;;;;;;5016844;28;20066;-72
2022/01/20 09:53:40;;;;;;;7.47;3.20;;;;;;;;;;5018020;28;20053;-72
2022/01/20 09:56:06;;;;;;;7.30;2.47;;;;;;;;;;5017932;28;20099;-72
2022/01/20 09:58:36;;;;;;;7.57;2.50;;;;;;;;;;5005215;28;20074;-73
2022/01/20 10:01:03;;;;;;;7.35;1.85;;;;;;;;;;5017634;28;20560;-73
2022/01/20 10:03:30;;;;;;;8.43;2.40;;;;;;;;;;5016638;28;20473;-73
2022/01/20 10:05:59;;;;;;;10.00;2.17;;;;;;;;;;5018040;28;20058;-72
2022/01/20 10:08:26;;;;;;;9.00;2.70;;;;;;;;;;5016061;28;20486;-72
2022/01/20 10:10:54;;;;;;;8.90;2.80;;;;;;;;;;5018100;28;20049;-72
2022/01/20 10:13:25;;;;;;;6.00;2.20;;;;;;;;;;5016349;28;20061;-72
2022/01/20 10:16:11;;;;;;;11.93;3.17;;;;;;;;;;5017743;28;20502;-72
2022/01/20 10:19:07;;;;;;;8.10;3.00;;;;;;;;;;5017449;28;20433;-71
2022/01/20 10:21:35;;;;;;;7.88;2.30;;;;;;;;;;5010705;28;20050;-72
2022/01/20 10:24:09;;;;;;;9.90;2.45;;;;;;;;;;5017930;28;20552;-72
2022/01/20 10:26:36;;;;;;;8.18;2.72;;;;;;;;;;5016753;28;20058;-72
2022/01/20 10:29:13;;;;;;;8.30;2.43;;;;;;;;;;5016545;28;20053;-73
2022/01/20 10:31:40;;;;;;;;;;;;;;;;;;5014373;28;20116;-73
2022/01/20 10:34:08;;;;;;;6.87;2.20;;;;;;;;;;5013811;28;19925;-73
2022/01/20 10:36:40;;;;;;;9.98;2.47;;;;;;;;;;5010906;28;20449;-73
2022/01/20 10:39:06;;;;;;;7.68;2.70;;;;;;;;;;5001069;28;20054;-73
2022/01/20 10:41:39;;;;;;;9.80;2.80;;;;;;;;;;5011297;28;20046;-72
2022/01/20 10:44:10;;;;;;;7.75;2.38;;;;;;;;;;5013708;28;20050;-73
2022/01/20 10:47:07;;;;;;;5.50;2.10;;;;;;;;;;5009459;28;20395;-72
2022/01/20 10:49:34;;;;;;;6.57;2.42;;;;;;;;;;5002290;28;20054;-71
2022/01/20 10:52:05;;;;;;;9.18;2.50;;;;;;;;;;5007762;28;20077;-73
2022/01/20 10:54:39;;;;;;;6.90;1.73;;;;;;;;;;5014789;28;20049;-73
2022/01/20 10:57:07;;;;;;;6.82;1.92;;;;;;;;;;5006682;28;20050;-72
2022/01/20 10:59:35;;;;;;;8.68;2.28;;;;;;;;;;5013727;28;20034;-72
2022/01/20 11:02:05;;;;;;;7.55;2.17;;;;;;;;;;5006600;28;20054;-72
2022/01/20 11:04:32;;;;;;;9.27;2.55;;;;;;;;;;5013650;28;20488;-72
2022/01/20 11:07:01;;;;;;;9.93;2.00;;;;;;;;;;5006980;28;20046;-73
2022/01/20 11:09:30;;;;;;;6.90;2.65;;;;;;;;;;5009711;28;20053;-71
2022/01/20 11:11:57;;;;;;;6.47;2.08;;;;;;;;;;5013536;28;20469;-72
2022/01/20 11:14:24;;;;;;;7.80;2.10;;;;;;;;;;5013316;28;20449;-72
2022/01/20 11:16:51;;;;;;;6.68;1.92;;;;;;;;;;5011692;28;20042;-71
2022/01/20 11:19:18;;;;;;;8.55;2.20;;;;;;;;;;5013448;28;20486;-71
2022/01/20 11:21:45;;;;;;;9.35;2.47;;;;;;;;;;5012550;28;20042;-72
2022/01/20 11:24:19;;;;;;;9.05;2.58;;;;;;;;;;5013497;28;20050;-72
2022/01/20 11:26:49;;;;;;;7.38;2.30;;;;;;;;;;5008397;28;20093;-72
2022/01/20 11:29:16;;;;;;;8.32;2.25;;;;;;;;;;5011030;28;20101;-72
2022/01/20 11:31:43;;;;;;;8.30;2.08;;;;;;;;;;5012785;28;20096;-72
2022/01/20 11:34:29;;;;;;;8.88;1.98;;;;;;;;;;5013486;28;20141;-72
2022/01/20 11:37:05;;;;;;;7.60;2.13;;;;;;;;;;5012333;28;20046;-71
2022/01/20 11:39:46;;;;;;;6.88;1.92;;;;;;;;;;5013709;28;20045;-72
2022/01/20 11:42:24;;;;;;;7.65;1.85;;;;;;;;;;5003867;28;20502;-72
2022/01/20 11:44:51;;;;;;;6.57;2.05;;;;;;;;;;5012495;28;20088;-72
2022/01/20 11:47:18;;;;;;;7.32;1.60;;;;;;;;;;5008505;28;20054;-72
2022/01/20 11:49:45;;;;;;;7.03;2.67;;;;;;;;;;5013650;28;20375;-72
2022/01/20 11:52:24;;;;;;;6.10;1.75;;;;;;;;;;5004348;28;20124;-73
2022/01/20 11:54:51;;;;;;;9.10;2.13;;;;;;;;;;5000576;28;20062;-72
2022/01/20 11:57:29;;;;;;;8.23;1.83;;;;;;;;;;5003738;28;20050;-73
2022/01/20 12:00:00;;;;;;;5.20;1.88;;;;;;;;;;4999603;28;20046;-72
2022/01/20 12:02:34;;;;;;;5.07;1.90;;;;;;;;;;5001697;28;20047;-72
2022/01/20 12:05:18;;;;;;;4.18;1.52;;;;;;;;;;5000725;28;20062;-72
2022/01/20 12:07:44;;;;;;;5.88;1.50;;;;;;;;;;5012255;28;20449;-72
2022/01/20 12:10:15;;;;;;;5.10;1.63;;;;;;;;;;5012096;28;20123;-73
2022/01/20 12:12:42;;;;;;;5.55;1.45;;;;;;;;;;5011294;28;20054;-72
2022/01/20 12:15:16;;;;;;;6.55;2.25;;;;;;;;;;5013080;28;20112;-71
2022/01/20 12:17:53;;;;;;;7.38;1.85;;;;;;;;;;5011661;28;20464;-71
2022/01/20 12:20:20;;;;;;;6.63;1.50;;;;;;;;;;5013048;28;20049;-71
2022/01/20 12:22:46;;;;;;;6.38;2.42;;;;;;;;;;4999269;28;20483;-71
2022/01/20 12:25:17;;;;;;;5.25;2.42;;;;;;;;;;4999071;28;20054;-72
2022/01/20 12:27:44;;;;;;;8.18;4.90;;;;;;;;;;5004204;28;20096;-72
2022/01/20 12:30:20;;;;;;;7.25;4.28;;;;;;;;;;5011843;28;20057;-72
2022/01/20 12:32:56;;;;;;;17.00;12.65;;;;;;;;;;4993181;28;20109;-72
2022/01/20 12:35:22;;;;;;;13.32;8.63;;;;;;;;;;4994406;28;20080;-72
2022/01/20 12:37:49;;;;;;;15.40;7.97;;;;;;;;;;5010747;28;20045;-72
2022/01/20 12:40:22;;;;;;;13.20;10.60;;;;;;;;;;5011464;28;20041;-72
2022/01/20 12:42:49;;;;;;;8.43;4.90;;;;;;;;;;5009945;28;20101;-72
2022/01/20 12:48:12;;;;;;;6.85;3.05;;;;;;;;;;5010512;28;20131;-71
2022/01/20 12:50:38;;;;;;;9.85;3.63;;;;;;;;;;5011825;28;20054;-71
2022/01/20 12:53:05;;;;;;;11.73;3.97;;;;;;;;;;5010388;28;20450;-71
2022/01/20 12:55:31;;;;;;;5.45;2.20;;;;;;;;;;5011064;28;20049;-71
2022/01/20 12:58:00;;;;;;;6.47;1.92;;;;;;;;;;5010076;28;20050;-71
2022/01/20 13:00:27;;;;;;;11.10;2.95;;;;;;;;;;5011523;28;20501;-71
2022/01/20 13:02:53;;;;;;;12.77;4.43;;;;;;;;;;5009490;28;20552;-71
2022/01/20 13:05:23;;;;;;;7.38;2.88;;;;;;;;;;5011901;28;20038;-71
2022/01/20 13:07:52;;;;;;;9.15;3.25;;;;;;;;;;5010761;28;20107;-71
2022/01/20 13:10:34;;;;;;;20.38;11.75;;;;;;;;;;5011944;28;20058;-71
2022/01/20 13:13:05;;;;;;;12.68;4.25;;;;;;;;;;5011112;28;20058;-72
2022/01/20 13:15:32;;;;;;;14.27;8.57;;;;;;;;;;5012056;28;20057;-71
2022/01/20 13:18:03;;;;;;;11.52;4.85;;;;;;;;;;5010020;28;20045;-72
2022/01/20 13:20:31;;;;;;;6.47;3.17;;;;;;;;;;5011888;28;20100;-72
2022/01/20 13:23:09;;;;;;;7.25;3.67;;;;;;;;;;5010677;28;20053;-72
2022/01/20 13:25:42;;;;;;;7.20;2.28;;;;;;;;;;5011924;28;20046;-71
2022/01/20 13:28:10;;;;;;;5.65;2.45;;;;;;;;;;4999898;28;20046;-72
2022/01/20 13:30:50;;;;;;;5.30;1.88;;;;;;;;;;5006495;28;20501;-72
2022/01/20 13:33:17;;;;;;;5.82;1.95;;;;;;;;;;4997898;28;20042;-72
2022/01/20 13:35:44;;;;;;;7.90;2.00;;;;;;;;;;5011763;28;20054;-72
2022/01/20 13:38:10;;;;;;;;;;;;;;;;;;5011074;28;20050;-72
2022/01/20 13:40:38;;;;;;;5.60;1.60;;;;;;;;;;5011964;28;19968;-73
2022/01/20 13:45:41;;;;;;;6.20;2.80;;;;;;;;;;5011983;28;19925;-72
2022/01/20 13:48:08;;;;;;;7.13;2.10;;;;;;;;;;5010381;28;20122;-72
2022/01/20 13:50:35;;;;;;;8.63;2.70;;;;;;;;;;5011271;28;20111;-71
2022/01/20 13:53:02;;;;;;;;;;;;;;;;;;5008943;28;20200;-71
2022/01/20 13:55:29;;;;;;;7.70;2.35;;;;;;;;;;5011845;28;19988;-71
2022/01/20 13:57:58;;;;;;;6.65;2.30;;;;;;;;;;5010372;28;20548;-71
2022/01/20 14:00:27;;;;;;;8.50;2.15;;;;;;;;;;5010150;28;20100;-71
2022/01/20 14:02:54;;;;;;;6.75;2.20;;;;;;;;;;5009021;28;20042;-71
2022/01/20 14:05:24;;;;;;;6.00;2.00;;;;;;;;;;5011708;28;20049;-71
2022/01/20 14:07:51;;;;;;;5.20;2.17;;;;;;;;;;5012043;28;20108;-71
2022/01/20 14:10:17;;;;;;;6.80;1.90;;;;;;;;;;5015133;28;20054;-71
2022/01/20 14:12:44;;;;;;;7.70;1.88;;;;;;;;;;5014437;28;20057;-70
2022/01/20 14:15:10;;;;;;;6.55;1.90;;;;;;;;;;5015266;28;20053;-71
2022/01/20 14:17:38;;;;;;;6.22;2.47;;;;;;;;;;5013673;28;20065;-71
2022/01/20 14:20:07;;;;;;;;;;;;;;;;;;5015248;28;20092;-71
2022/01/20 14:22:34;;;;;;;5.78;1.90;;;;;;;;;;5014089;28;19925;-71
2022/01/20 14:25:01;;;;;;;6.85;1.70;;;;;;;;;;5014444;28;20046;-71
2022/01/20 14:27:27;;;;;;;8.53;2.70;;;;;;;;;;5012250;28;20049;-71
2022/01/20 14:29:54;;;;;;;6.90;1.88;;;;;;;;;;5014770;28;20054;-71
2022/01/20 14:32:20;;;;;;;7.20;2.00;;;;;;;;;;5013933;28;20057;-71
2022/01/20 14:34:47;;;;;;;6.15;1.75;;;;;;;;;;5014964;28;20083;-71
2022/01/20 14:37:13;;;;;;;5.97;1.80;;;;;;;;;;5013246;28;20505;-71
2022/01/20 14:39:40;;;;;;;5.95;2.10;;;;;;;;;;5014728;28;20497;-71
2022/01/20 14:42:11;;;;;;;6.25;1.90;;;;;;;;;;5013398;28;20095;-72
2022/01/20 14:44:37;;;;;;;8.35;2.38;;;;;;;;;;5014814;28;20057;-71
2022/01/20 14:47:10;;;;;;;8.10;2.17;;;;;;;;;;5013276;28;20057;-70
2022/01/20 14:49:37;;;;;;;9.48;2.70;;;;;;;;;;5013783;28;20072;-70
2022/01/20 14:52:04;;;;;;;8.23;2.40;;;;;;;;;;5013643;28;20410;-71
2022/01/20 14:54:30;;;;;;;7.97;2.30;;;;;;;;;;5014485;28;20050;-71
2022/01/20 14:56:57;;;;;;;5.88;2.10;;;;;;;;;;5013500;28;20112;-72
2022/01/20 14:59:24;;;;;;;8.38;2.08;;;;;;;;;;5014472;28;20050;-71
2022/01/20 15:01:50;;;;;;;6.80;2.72;;;;;;;;;;5013284;28;20045;-71
2022/01/20 15:04:17;;;;;;;6.90;2.60;;;;;;;;;;5013786;28;20053;-71
2022/01/20 15:06:44;;;;;;;4.87;1.77;;;;;;;;;;5012595;28;20123;-71
2022/01/20 15:09:10;;;;;;;9.50;3.20;;;;;;;;;;5013493;28;20342;-71
2022/01/20 15:11:38;;;;;;;6.65;2.78;;;;;;;;;;5012474;28;20494;-71
2022/01/20 15:14:04;;;;;;;10.45;4.20;;;;;;;;;;5013968;28;20128;-71
2022/01/20 15:16:31;;;;;;;7.97;3.85;;;;;;;;;;5013080;28;20085;-71
2022/01/20 15:18:57;;;;;;;6.10;2.05;;;;;;;;;;5013378;28;20060;-71
2022/01/20 15:21:24;;;;;;;2.70;1.20;;;;;;;;;;5012822;28;20096;-71
2022/01/20 15:23:51;;;;;;;3.55;1.05;;;;;;;;;;5013703;28;20041;-71
2022/01/20 15:26:18;;;;;;;3.90;1.15;;;;;;;;;;5012398;28;20053;-71
2022/01/20 15:28:47;;;;;;;4.80;1.00;;;;;;;;;;5009306;28;20137;-71
2022/01/20 15:31:15;;;;;;;4.00;1.05;;;;;;;;;;5011405;28;20054;-71
2022/01/20 15:33:42;;;;;;;4.47;0.93;;;;;;;;;;5013839;28;20380;-71
2022/01/20 15:36:09;;;;;;;3.72;1.20;;;;;;;;;;5012937;28;20437;-71
2022/01/20 15:38:36;;;;;;;2.70;1.10;;;;;;;;;;5001193;28;20042;-71
2022/01/20 15:41:03;;;;;;;4.85;1.02;;;;;;;;;;5013592;28;20345;-72
2022/01/20 15:43:30;;;;;;;2.33;1.00;;;;;;;;;;5003706;28;20046;-72
2022/01/20 15:45:58;;;;;;;5.28;1.10;;;;;;;;;;5003139;28;20050;-72
2022/01/20 15:48:25;;;;;;;6.40;1.52;;;;;;;;;;5011127;28;20128;-71
2022/01/20 15:50:52;;;;;;;5.75;1.00;;;;;;;;;;5013612;28;20104;-72
2022/01/20 15:53:18;;;;;;;2.50;1.00;;;;;;;;;;5012883;28;20100;-71
2022/01/20 15:55:45;;;;;;;2.65;0.80;;;;;;;;;;5013160;28;20513;-71
2022/01/20 15:58:11;;;;;;;2.88;1.63;;;;;;;;;;5011259;28;20046;-71
2022/01/20 16:00:38;;;;;;;6.15;1.20;;;;;;;;;;5012817;28;20100;-72